Time;durP1;ratioP1;P1;durP2;ratioP2;P2;SDS_P1;SDS_P2;PMS_P1;PMS_P2;Temp;Humidity;BMP_temperature;BMP_pressure;BME280_temperature;BME280_humidity;BME280_pressure;Samples;Min_cycle;Max_cycle;Signal;HPM_P1;HPM_P2
2024/04/17 00:01:18;;;;;;;11.23;3.67;;;7.10;88.50;;;;;;5367687;26;20004;-63
2024/04/17 00:03:44;;;;;;;6.57;2.75;;;7.00;88.50;;;;;;5364192;26;19996;-64
2024/04/17 00:06:10;;;;;;;11.45;2.95;;;7.00;88.60;;;;;;5362671;26;20009;-64
2024/04/17 00:08:35;;;;;;;8.60;3.40;;;7.00;88.70;;;;;;5361959;26;20015;-64
2024/04/17 00:11:02;;;;;;;10.60;2.95;;;7.00;88.70;;;;;;5362451;26;20004;-64
2024/04/17 00:13:28;;;;;;;13.40;2.90;;;7.00;88.70;;;;;;5362902;26;20046;-65
2024/04/17 00:15:53;;;;;;;7.25;2.55;;;7.00;88.70;;;;;;5360817;26;20454;-65
2024/04/17 00:18:19;;;;;;;7.13;2.72;;;7.00;88.70;;;;;;5359572;26;20077;-63
2024/04/17 00:20:44;;;;;;;6.75;2.67;;;7.00;88.70;;;;;;5364599;26;20066;-64
2024/04/17 00:23:10;;;;;;;8.90;3.15;;;7.00;88.70;;;;;;5366026;26;19997;-63
2024/04/17 00:25:35;;;;;;;7.68;2.80;;;7.00;88.60;;;;;;5360632;26;19996;-63
2024/04/17 00:28:01;;;;;;;8.65;2.90;;;7.00;88.50;;;;;;5367483;26;20000;-63
2024/04/17 00:30:26;;;;;;;10.57;2.35;;;7.00;88.50;;;;;;5362204;26;20000;-64
2024/04/17 00:32:52;;;;;;;9.52;2.97;;;7.00;88.50;;;;;;5360045;26;20077;-64
2024/04/17 00:35:17;;;;;;;11.98;2.85;;;6.90;88.40;;;;;;5372078;26;20081;-62
2024/04/17 00:37:43;;;;;;;7.25;2.42;;;6.90;88.90;;;;;;5375341;26;20074;-63
2024/04/17 00:40:09;;;;;;;9.48;2.55;;;6.90;88.30;;;;;;5370283;26;20011;-63
2024/04/17 00:42:35;;;;;;;9.57;2.47;;;6.90;88.40;;;;;;5365562;26;20532;-64
2024/04/17 00:45:01;;;;;;;7.13;2.10;;;6.90;88.40;;;;;;5367116;26;20081;-64
2024/04/17 00:47:26;;;;;;;8.70;2.70;;;6.90;88.40;;;;;;5362157;26;20005;-64
2024/04/17 00:49:52;;;;;;;8.80;2.58;;;6.90;88.40;;;;;;5372270;26;20071;-65
2024/04/17 00:52:18;;;;;;;8.43;2.58;;;6.90;88.20;;;;;;5365175;26;20424;-65
2024/04/17 00:54:45;;;;;;;11.02;2.80;;;6.80;88.20;;;;;;5362961;26;20015;-65
2024/04/17 00:57:13;;;;;;;7.47;2.42;;;6.80;88.40;;;;;;5365428;26;20012;-65
2024/04/17 00:59:39;;;;;;;8.13;2.47;;;6.80;88.50;;;;;;5368077;26;20011;-64
2024/04/17 01:02:05;;;;;;;10.02;2.40;;;6.80;88.60;;;;;;5363502;26;20005;-65
2024/04/17 01:04:31;;;;;;;5.93;2.42;;;6.80;88.60;;;;;;5368359;26;20028;-65
2024/04/17 01:06:56;;;;;;;7.47;2.35;;;6.80;88.50;;;;;;5363034;26;20011;-65
2024/04/17 01:09:22;;;;;;;8.20;2.30;;;6.80;88.40;;;;;;5367664;26;20052;-66
2024/04/17 01:11:48;;;;;;;8.55;2.90;;;6.80;88.40;;;;;;5371459;26;20360;-64
2024/04/17 01:14:13;;;;;;;8.02;2.63;;;6.80;88.40;;;;;;5367174;26;20008;-66
2024/04/17 01:16:40;;;;;;;8.80;2.67;;;6.80;88.40;;;;;;5364616;26;20008;-66
2024/04/17 01:19:08;;;;;;;9.35;2.55;;;6.70;88.50;;;;;;5367908;26;20011;-66
2024/04/17 01:21:34;;;;;;;7.95;2.78;;;6.80;88.70;;;;;;5365721;26;21797;-64
2024/04/17 01:24:00;;;;;;;5.90;2.70;;;6.70;88.60;;;;;;5359482;26;20011;-63
2024/04/17 01:26:25;;;;;;;7.55;3.05;;;6.70;88.70;;;;;;5373633;26;20444;-64
2024/04/17 01:28:51;;;;;;;8.27;2.63;;;6.70;89.30;;;;;;5364421;26;20000;-65
2024/04/17 01:31:17;;;;;;;9.70;3.22;;;6.70;88.80;;;;;;5363693;26;20037;-64
2024/04/17 01:33:42;;;;;;;6.80;2.70;;;6.80;88.90;;;;;;5362386;26;20004;-63
2024/04/17 01:36:08;;;;;;;8.77;2.90;;;6.80;88.90;;;;;;5370629;26;20000;-64
2024/04/17 01:38:34;;;;;;;8.23;2.60;;;6.70;88.90;;;;;;5366719;26;20412;-63
2024/04/17 01:41:00;;;;;;;8.50;2.75;;;6.70;89.10;;;;;;5371001;26;19997;-63
2024/04/17 01:43:26;;;;;;;9.70;2.92;;;6.70;89.20;;;;;;5366028;26;20331;-63
2024/04/17 01:45:52;;;;;;;7.63;2.65;;;6.70;89.20;;;;;;5368030;26;20434;-64
2024/04/17 01:48:18;;;;;;;9.52;2.78;;;6.80;89.30;;;;;;5366357;26;20005;-64
2024/04/17 01:50:44;;;;;;;10.10;2.80;;;6.70;89.20;;;;;;5364884;26;20011;-64
2024/04/17 01:53:09;;;;;;;10.77;2.50;;;6.70;89.30;;;;;;5363543;26;20001;-64
2024/04/17 01:55:35;;;;;;;9.05;2.90;;;6.80;89.50;;;;;;5368470;26;21023;-63
2024/04/17 01:58:00;;;;;;;9.90;2.53;;;6.80;89.50;;;;;;5370804;26;20012;-63
2024/04/17 02:00:26;;;;;;;7.95;2.45;;;6.80;89.80;;;;;;5370370;26;20049;-63
2024/04/17 02:02:51;;;;;;;7.13;2.60;;;6.80;89.40;;;;;;5376441;26;19995;-64
2024/04/17 02:05:17;;;;;;;9.60;2.97;;;6.80;89.40;;;;;;5374029;26;20005;-63
2024/04/17 02:07:43;;;;;;;5.43;2.72;;;6.80;89.50;;;;;;5367057;26;20011;-64
2024/04/17 02:10:08;;;;;;;11.10;2.90;;;6.80;89.70;;;;;;5375122;26;20097;-64
2024/04/17 02:12:34;;;;;;;11.20;2.60;;;6.80;89.80;;;;;;5361553;26;20059;-64
2024/04/17 02:14:59;;;;;;;10.75;2.70;;;6.80;89.90;;;;;;5357031;26;20439;-63
2024/04/17 02:17:25;;;;;;;5.85;2.55;;;6.80;90.00;;;;;;5361368;26;20337;-64
2024/04/17 02:19:50;;;;;;;8.18;2.72;;;6.80;90.00;;;;;;5364656;26;20000;-64
2024/04/17 02:22:16;;;;;;;7.05;2.50;;;6.80;90.00;;;;;;5375187;26;20015;-62
2024/04/17 02:24:42;;;;;;;7.40;2.75;;;6.80;90.00;;;;;;5364964;26;20077;-64
2024/04/17 02:27:07;;;;;;;13.95;3.22;;;6.80;90.10;;;;;;5361945;26;20004;-64
2024/04/17 02:29:33;;;;;;;10.27;2.80;;;6.80;90.10;;;;;;5364071;26;20004;-65
2024/04/17 02:31:58;;;;;;;7.70;2.55;;;6.80;90.10;;;;;;5364429;26;20682;-65
2024/04/17 02:34:24;;;;;;;10.18;2.75;;;6.80;90.10;;;;;;5365014;26;20012;-65
2024/04/17 02:36:50;;;;;;;8.82;2.85;;;6.80;90.20;;;;;;5370085;26;20342;-64
2024/04/17 02:39:15;;;;;;;8.60;2.85;;;6.80;90.50;;;;;;5364110;26;20020;-63
2024/04/17 02:41:41;;;;;;;9.00;2.60;;;6.80;90.20;;;;;;5364496;26;20001;-64
2024/04/17 02:44:06;;;;;;;7.18;3.00;;;6.80;90.30;;;;;;5367748;26;20016;-65
2024/04/17 02:46:32;;;;;;;8.68;2.65;;;6.80;90.30;;;;;;5357622;26;20001;-64
2024/04/17 02:48:57;;;;;;;7.13;2.67;;;6.80;90.30;;;;;;5369967;26;20078;-64
2024/04/17 02:51:25;;;;;;;10.02;2.83;;;6.80;90.30;;;;;;5367778;26;20089;-66
2024/04/17 02:53:50;;;;;;;8.45;2.70;;;6.80;90.40;;;;;;5362455;26;20004;-64
2024/04/17 02:56:16;;;;;;;7.35;2.50;;;6.90;90.40;;;;;;5360256;26;20545;-64
2024/04/17 02:58:41;;;;;;;11.35;3.47;;;6.90;90.40;;;;;;5368527;26;20008;-64
2024/04/17 03:01:14;;;;;;;7.07;2.67;;;6.90;90.40;;;;;;5369357;26;20011;-63
2024/04/17 03:03:40;;;;;;;6.40;2.47;;;6.90;90.40;;;;;;5363359;26;20004;-64
2024/04/17 03:06:06;;;;;;;7.85;3.00;;;6.90;90.40;;;;;;5360089;26;20409;-64
2024/04/17 03:08:32;;;;;;;7.72;2.88;;;7.00;90.40;;;;;;5368933;26;20079;-64
2024/04/17 03:11:01;;;;;;;8.77;3.05;;;7.00;90.40;;;;;;5360602;26;20414;-65
2024/04/17 03:13:27;;;;;;;11.00;3.20;;;7.00;90.40;;;;;;5366014;26;20016;-65
2024/04/17 03:15:53;;;;;;;7.03;2.90;;;7.00;90.40;;;;;;5362434;26;20460;-64
2024/04/17 03:18:20;;;;;;;9.00;2.72;;;7.00;90.40;;;;;;5359437;26;20008;-63
2024/04/17 03:20:45;;;;;;;6.40;2.60;;;7.00;90.40;;;;;;5361667;26;20383;-62
2024/04/17 03:23:11;;;;;;;9.38;2.90;;;7.00;90.40;;;;;;5367328;26;20034;-63
2024/04/17 03:25:36;;;;;;;7.65;2.72;;;7.10;90.40;;;;;;5368288;26;20008;-63
2024/04/17 03:28:03;;;;;;;5.35;2.50;;;7.00;90.40;;;;;;5359444;26;20315;-61
2024/04/17 03:30:28;;;;;;;8.35;2.88;;;7.10;90.40;;;;;;5361224;26;20421;-63
2024/04/17 03:32:54;;;;;;;7.32;2.50;;;7.10;90.50;;;;;;5363804;26;20011;-65
2024/04/17 03:35:20;;;;;;;6.13;2.55;;;7.10;90.50;;;;;;5368204;26;20008;-65
2024/04/17 03:37:45;;;;;;;7.05;2.53;;;7.10;90.50;;;;;;5365301;26;20000;-64
2024/04/17 03:40:11;;;;;;;5.68;2.60;;;7.10;90.50;;;;;;5366974;26;20017;-64
2024/04/17 03:42:37;;;;;;;6.22;2.38;;;7.10;90.50;;;;;;5370520;26;20050;-64
2024/04/17 03:45:03;;;;;;;5.47;2.40;;;7.10;90.50;;;;;;5369068;26;20004;-65
2024/04/17 03:47:28;;;;;;;6.55;2.50;;;7.20;90.50;;;;;;5367210;26;20076;-64
2024/04/17 03:49:54;;;;;;;7.65;2.50;;;7.20;90.50;;;;;;5367990;26;19996;-65
2024/04/17 03:52:20;;;;;;;5.30;2.25;;;7.10;90.50;;;;;;5363364;26;20001;-64
2024/04/17 03:54:45;;;;;;;5.68;2.58;;;7.20;90.60;;;;;;5366939;26;20389;-62
2024/04/17 03:57:11;;;;;;;5.28;2.35;;;7.20;90.60;;;;;;5366680;26;19997;-64
2024/04/17 03:59:36;;;;;;;9.77;2.10;;;7.30;90.60;;;;;;5367709;26;20462;-64
2024/04/17 04:02:06;;;;;;;5.13;1.98;;;7.40;90.60;;;;;;5358349;26;20033;-64
2024/04/17 04:04:32;;;;;;;3.53;2.08;;;7.40;90.50;;;;;;5366185;26;20051;-64
2024/04/17 04:06:57;;;;;;;5.22;2.33;;;7.40;90.50;;;;;;5364992;26;20005;-63
2024/04/17 04:09:23;;;;;;;4.07;2.22;;;7.40;90.50;;;;;;5358859;26;19993;-63
2024/04/17 04:11:49;;;;;;;6.82;2.33;;;7.40;90.60;;;;;;5357853;26;20077;-64
2024/04/17 04:14:15;;;;;;;6.80;2.70;;;7.40;90.60;;;;;;5361168;26;20008;-63
2024/04/17 04:16:41;;;;;;;4.80;2.30;;;7.30;90.70;;;;;;5361627;26;20631;-64
2024/04/17 04:19:06;;;;;;;4.68;2.13;;;7.20;90.80;;;;;;5360200;26;20011;-63
2024/04/17 04:21:32;;;;;;;4.22;2.28;;;7.30;90.80;;;;;;5362993;26;20077;-63
2024/04/17 04:23:57;;;;;;;5.35;2.10;;;7.30;90.90;;;;;;5371080;26;20000;-63
2024/04/17 04:26:23;;;;;;;4.68;2.10;;;7.30;90.90;;;;;;5362860;26;20074;-64
2024/04/17 04:28:49;;;;;;;3.67;1.98;;;7.30;91.00;;;;;;5362435;26;20506;-63
2024/04/17 04:31:14;;;;;;;3.97;2.30;;;7.40;91.00;;;;;;5370274;26;20011;-63
2024/04/17 04:33:40;;;;;;;3.80;2.30;;;7.40;91.00;;;;;;5360574;26;20023;-63
2024/04/17 04:36:06;;;;;;;3.90;2.50;;;7.40;91.00;;;;;;5373897;26;20490;-63
2024/04/17 04:38:31;;;;;;;4.68;2.63;;;7.50;91.00;;;;;;5359511;26;20020;-65
2024/04/17 04:40:57;;;;;;;4.22;2.45;;;7.50;91.00;;;;;;5370846;26;20081;-63
2024/04/17 04:43:23;;;;;;;4.72;2.88;;;7.50;91.00;;;;;;5371177;26;20007;-64
2024/04/17 04:45:48;;;;;;;4.45;2.67;;;7.40;91.10;;;;;;5368258;26;20022;-65
2024/04/17 04:48:14;;;;;;;5.63;2.40;;;7.40;91.10;;;;;;5360793;26;20204;-64
2024/04/17 04:50:39;;;;;;;6.15;2.80;;;7.40;91.20;;;;;;5371490;26;19996;-65
2024/04/17 04:53:05;;;;;;;4.97;2.80;;;7.40;91.20;;;;;;5362230;26;20008;-64
2024/04/17 04:55:31;;;;;;;4.45;2.50;;;7.30;91.30;;;;;;5372666;26;20004;-63
2024/04/17 04:57:57;;;;;;;4.63;2.40;;;7.30;91.40;;;;;;5361587;26;20007;-64
2024/04/17 05:00:22;;;;;;;4.53;2.17;;;7.30;91.40;;;;;;5358069;26;20339;-64
2024/04/17 05:02:48;;;;;;;3.97;2.20;;;7.30;91.40;;;;;;5351226;26;20579;-65
2024/04/17 05:05:13;;;;;;;2.97;1.90;;;7.30;91.40;;;;;;5353880;26;20316;-64
2024/04/17 05:07:39;;;;;;;4.95;1.98;;;7.30;91.40;;;;;;5352829;26;20000;-65
2024/04/17 05:10:05;;;;;;;3.20;1.77;;;7.30;91.40;;;;;;5372921;26;20004;-65
2024/04/17 05:12:30;;;;;;;3.42;1.70;;;7.30;91.40;;;;;;5363553;26;20089;-65
2024/04/17 05:14:56;;;;;;;3.30;1.77;;;7.30;91.40;;;;;;5362395;26;19996;-64
2024/04/17 05:17:21;;;;;;;2.35;1.60;;;7.30;91.40;;;;;;5363419;26;20012;-64
2024/04/17 05:19:47;;;;;;;2.13;1.27;;;7.30;91.40;;;;;;5355777;26;19997;-64
2024/04/17 05:22:12;;;;;;;2.35;1.40;;;7.40;91.30;;;;;;5368674;26;20004;-65
2024/04/17 05:24:38;;;;;;;2.47;1.50;;;7.40;91.30;;;;;;5369732;26;20066;-64
2024/04/17 05:27:04;;;;;;;3.22;2.00;;;7.40;91.20;;;;;;5375599;26;20025;-64
2024/04/17 05:29:29;;;;;;;3.22;1.65;;;7.30;91.20;;;;;;5384122;26;20074;-64
2024/04/17 05:31:55;;;;;;;3.63;1.80;;;7.30;91.30;;;;;;5366400;26;20019;-63
2024/04/17 05:34:20;;;;;;;2.60;1.50;;;7.30;91.40;;;;;;5364096;26;20011;-64
2024/04/17 05:36:46;;;;;;;2.33;1.40;;;7.30;91.30;;;;;;5376341;26;20000;-64
2024/04/17 05:39:11;;;;;;;2.22;1.33;;;7.20;91.20;;;;;;5362145;26;20013;-64
2024/04/17 05:41:37;;;;;;;3.70;1.30;;;7.20;91.40;;;;;;5363092;26;20012;-63
2024/04/17 05:44:03;;;;;;;5.38;1.42;;;7.20;91.40;;;;;;5375493;26;20007;-63
2024/04/17 05:46:28;;;;;;;1.70;1.17;;;7.20;91.40;;;;;;5365893;26;20107;-63
2024/04/17 05:48:54;;;;;;;1.75;1.02;;;7.20;91.40;;;;;;5367277;26;19996;-64
2024/04/17 05:51:20;;;;;;;2.15;1.00;;;7.30;91.40;;;;;;5357958;26;19996;-65
2024/04/17 05:53:46;;;;;;;2.50;1.02;;;7.30;91.40;;;;;;5364106;26;19996;-64
2024/04/17 05:56:11;;;;;;;1.70;1.00;;;7.30;91.40;;;;;;5370145;26;20000;-64
2024/04/17 05:58:37;;;;;;;3.45;1.08;;;7.30;91.30;;;;;;5373770;26;20044;-64
2024/04/17 06:01:03;;;;;;;4.15;1.08;;;7.40;91.30;;;;;;5358059;26;20443;-64
2024/04/17 06:03:28;;;;;;;4.28;1.10;;;7.40;91.20;;;;;;5360079;26;20135;-65
2024/04/17 06:05:54;;;;;;;2.65;1.20;;;7.40;91.20;;;;;;5366467;26;20000;-65
2024/04/17 06:08:19;;;;;;;2.33;1.20;;;7.50;91.20;;;;;;5358821;26;20028;-64
2024/04/17 06:10:45;;;;;;;1.33;0.82;;;7.50;91.20;;;;;;5357596;26;20007;-64
2024/04/17 06:13:11;;;;;;;3.58;1.08;;;7.60;91.10;;;;;;5360713;26;20304;-64
2024/04/17 06:15:36;;;;;;;2.17;1.00;;;7.70;91.00;;;;;;5365192;26;19996;-64
2024/04/17 06:18:03;;;;;;;3.35;1.23;;;7.80;91.00;;;;;;5357182;26;20020;-64
2024/04/17 06:20:28;;;;;;;2.08;1.20;;;8.00;90.80;;;;;;5348908;26;20413;-64
2024/04/17 06:22:54;;;;;;;3.65;1.38;;;8.20;90.80;;;;;;5354911;26;20011;-64
2024/04/17 06:25:19;;;;;;;2.13;1.00;;;8.60;90.40;;;;;;5369146;26;20004;-64
2024/04/17 06:27:45;;;;;;;2.42;1.10;;;8.90;89.60;;;;;;5362026;26;20012;-65
2024/04/17 06:30:11;;;;;;;2.58;1.20;;;8.90;88.70;;;;;;5357876;26;20082;-63
2024/04/17 06:32:36;;;;;;;2.55;1.00;;;8.80;88.40;;;;;;5365542;26;20016;-64
2024/04/17 06:35:02;;;;;;;1.40;1.00;;;8.70;88.70;;;;;;5359911;26;20032;-64
2024/04/17 06:37:28;;;;;;;2.15;1.00;;;8.80;88.70;;;;;;5358985;26;19997;-64
2024/04/17 06:39:53;;;;;;;2.08;1.15;;;9.00;88.30;;;;;;5365743;26;20004;-64
2024/04/17 06:42:19;;;;;;;2.17;1.35;;;9.00;88.00;;;;;;5369254;26;20009;-64
2024/04/17 06:44:44;;;;;;;3.33;1.08;;;9.30;88.00;;;;;;5367119;26;20073;-64
2024/04/17 06:47:10;;;;;;;2.33;1.15;;;9.50;87.00;;;;;;5370945;26;20068;-65
2024/04/17 06:49:36;;;;;;;1.65;0.90;;;9.70;86.30;;;;;;5374924;26;20451;-65
2024/04/17 06:52:01;;;;;;;1.95;1.02;;;9.90;85.80;;;;;;5363352;26;20019;-65
2024/04/17 06:54:27;;;;;;;3.28;1.00;;;10.10;85.50;;;;;;5367319;26;20020;-65
2024/04/17 06:56:52;;;;;;;1.52;0.90;;;10.30;84.80;;;;;;5366395;26;20026;-64
2024/04/17 06:59:18;;;;;;;1.92;1.00;;;10.50;84.10;;;;;;5360594;26;20360;-64
2024/04/17 07:01:44;;;;;;;1.75;1.00;;;11.90;82.20;;;;;;5363619;26;20453;-63
2024/04/17 07:04:09;;;;;;;2.00;1.00;;;13.80;77.70;;;;;;5362290;26;20007;-64
2024/04/17 07:06:35;;;;;;;1.00;0.82;;;14.90;73.80;;;;;;5371650;26;19995;-64
2024/04/17 07:09:01;;;;;;;1.75;1.05;;;16.20;70.60;;;;;;5370092;26;19996;-64
2024/04/17 07:11:27;;;;;;;1.30;0.80;;;17.00;68.00;;;;;;5370253;26;20070;-65
2024/04/17 07:13:53;;;;;;;2.05;1.05;;;17.30;66.90;;;;;;5362979;26;20000;-63
2024/04/17 07:16:18;;;;;;;2.80;1.20;;;17.50;65.80;;;;;;5361780;26;20073;-65
2024/04/17 07:18:45;;;;;;;2.88;1.00;;;18.50;63.60;;;;;;5376411;26;20107;-64
2024/04/17 07:21:11;;;;;;;3.67;1.30;;;17.30;64.00;;;;;;5355123;26;20016;-63
2024/04/17 07:23:38;;;;;;;2.38;1.33;;;16.30;65.80;;;;;;5363015;26;20004;-63
2024/04/17 07:26:04;;;;;;;4.07;1.33;;;15.80;67.00;;;;;;5361661;26;20447;-64
2024/04/17 07:28:29;;;;;;;4.30;1.10;;;15.00;68.20;;;;;;5353942;26;20012;-63
2024/04/17 07:30:55;;;;;;;3.25;1.20;;;14.40;69.70;;;;;;5361876;26;20000;-63
2024/04/17 07:33:20;;;;;;;3.67;1.50;;;13.70;71.40;;;;;;5357644;26;20000;-63
2024/04/17 07:35:46;;;;;;;5.18;1.60;;;13.70;72.60;;;;;;5351877;26;20004;-63
2024/04/17 07:38:12;;;;;;;4.50;1.60;;;13.40;72.20;;;;;;5359986;26;20012;-61
2024/04/17 07:40:38;;;;;;;4.82;1.48;;;12.90;72.90;;;;;;5362176;26;20015;-63
2024/04/17 07:43:04;;;;;;;5.00;1.58;;;14.50;73.00;;;;;;5354636;26;20010;-63
2024/04/17 07:45:30;;;;;;;6.43;1.67;;;16.40;67.40;;;;;;5356182;26;20004;-64
2024/04/17 07:47:56;;;;;;;5.88;1.63;;;17.60;64.20;;;;;;5357627;26;20398;-63
2024/04/17 07:50:21;;;;;;;3.80;1.50;;;18.80;61.10;;;;;;5359568;26;20000;-63
2024/04/17 07:52:47;;;;;;;4.90;1.67;;;19.70;58.90;;;;;;5356026;26;19996;-61
2024/04/17 07:55:12;;;;;;;5.55;1.70;;;20.00;56.70;;;;;;5360590;26;19992;-61
2024/04/17 07:57:38;;;;;;;6.38;1.88;;;18.60;58.00;;;;;;5359896;26;20019;-64
2024/04/17 08:00:04;;;;;;;4.93;1.60;;;17.80;60.30;;;;;;5353498;26;20015;-63
2024/04/17 08:02:31;;;;;;;6.35;1.70;;;17.70;60.00;;;;;;5362637;26;20019;-62
2024/04/17 08:04:57;;;;;;;6.38;1.70;;;16.90;60.90;;;;;;5365352;26;20000;-64
2024/04/17 08:07:22;;;;;;;6.47;1.83;;;16.00;62.90;;;;;;5360835;26;20000;-64
2024/04/17 08:09:48;;;;;;;6.22;1.60;;;15.90;64.70;;;;;;5356634;26;19997;-64
2024/04/17 08:12:13;;;;;;;7.90;1.80;;;15.30;64.50;;;;;;5357881;26;20015;-62
2024/04/17 08:14:39;;;;;;;7.65;2.25;;;14.20;66.20;;;;;;5358548;26;20029;-63
2024/04/17 08:17:04;;;;;;;5.40;1.98;;;13.40;68.40;;;;;;5367027;26;20012;-63
2024/04/17 08:19:30;;;;;;;7.85;1.80;;;12.90;69.70;;;;;;5365512;26;20011;-63
2024/04/17 08:21:55;;;;;;;6.60;1.70;;;12.60;70.60;;;;;;5369621;26;20001;-64
2024/04/17 08:24:21;;;;;;;5.80;1.65;;;12.30;71.50;;;;;;5365835;26;20262;-64
2024/04/17 08:26:48;;;;;;;7.88;1.80;;;11.90;72.30;;;;;;5376639;26;20395;-64
2024/04/17 08:29:13;;;;;;;6.50;1.50;;;11.60;73.10;;;;;;5361770;26;20086;-64
2024/04/17 08:31:39;;;;;;;7.30;1.80;;;11.30;74.20;;;;;;5351619;26;20016;-63
2024/04/17 08:34:04;;;;;;;6.03;1.73;;;11.90;73.80;;;;;;5352913;26;20009;-63
2024/04/17 08:36:30;;;;;;;7.32;1.58;;;11.80;72.40;;;;;;5353387;26;20301;-64
2024/04/17 08:38:56;;;;;;;5.85;1.60;;;11.60;73.10;;;;;;5353313;26;20817;-64
2024/04/17 08:41:31;;;;;;;7.47;1.50;;;12.20;73.80;;;;;;5351592;26;19997;-64
2024/04/17 08:44:00;;;;;;;6.90;2.03;;;13.20;71.90;;;;;;5351326;26;20055;-63
2024/04/17 08:46:28;;;;;;;6.93;1.60;;;13.60;70.10;;;;;;5355018;26;20011;-65
2024/04/17 08:48:55;;;;;;;6.95;1.48;;;13.60;69.50;;;;;;5354803;26;19997;-64
2024/04/17 08:51:24;;;;;;;6.90;1.45;;;13.50;69.20;;;;;;5358100;26;20050;-64
2024/04/17 08:53:52;;;;;;;5.82;1.40;;;13.20;69.40;;;;;;5358418;26;20015;-64
2024/04/17 08:56:19;;;;;;;4.50;1.40;;;12.60;70.00;;;;;;5357414;26;20004;-62
2024/04/17 08:58:45;;;;;;;7.25;1.50;;;11.90;70.80;;;;;;5358435;26;20036;-64
2024/04/17 09:01:12;;;;;;;4.95;1.40;;;11.30;71.70;;;;;;5359356;26;20349;-62
2024/04/17 09:03:42;;;;;;;3.38;1.20;;;11.00;72.60;;;;;;5360969;26;20045;-62
2024/04/17 09:06:08;;;;;;;3.92;1.25;;;10.70;73.70;;;;;;5353243;26;20001;-63
2024/04/17 09:08:36;;;;;;;7.70;1.52;;;10.60;74.50;;;;;;5362280;26;20007;-63
2024/04/17 09:11:02;;;;;;;4.03;1.15;;;10.40;74.90;;;;;;5365676;26;20344;-63
2024/04/17 09:13:28;;;;;;;5.18;1.33;;;10.30;75.50;;;;;;5362466;26;20014;-64
2024/04/17 09:15:54;;;;;;;5.50;1.25;;;10.30;76.10;;;;;;5361205;26;21316;-63
2024/04/17 09:18:28;;;;;;;4.32;1.35;;;10.50;76.70;;;;;;5353560;26;20403;-63
2024/04/17 09:20:56;;;;;;;6.25;1.40;;;10.70;76.60;;;;;;5361688;26;20460;-64
2024/04/17 09:23:22;;;;;;;4.25;1.55;;;10.90;76.10;;;;;;5363541;26;20031;-64
2024/04/17 09:25:47;;;;;;;4.95;1.20;;;11.10;75.70;;;;;;5362612;26;20050;-64
2024/04/17 09:28:13;;;;;;;6.50;1.55;;;11.30;74.50;;;;;;5361822;26;20435;-64
2024/04/17 09:30:42;;;;;;;5.93;1.40;;;11.40;74.20;;;;;;5348935;26;20008;-64
2024/04/17 09:33:10;;;;;;;3.67;1.10;;;11.50;73.10;;;;;;5361553;26;20076;-64
2024/04/17 09:35:38;;;;;;;3.25;1.10;;;11.50;72.90;;;;;;5357261;26;20070;-63
2024/04/17 09:38:14;;;;;;;3.08;0.80;;;11.40;72.40;;;;;;5361474;26;20011;-63
2024/04/17 09:40:46;;;;;;;3.13;1.20;;;11.30;71.20;;;;;;5361736;26;20001;-63
2024/04/17 09:43:26;;;;;;;2.92;0.90;;;11.20;71.30;;;;;;5357117;26;20348;-64
2024/04/17 09:46:05;;;;;;;2.95;1.13;;;11.00;70.90;;;;;;5364268;26;20047;-65
2024/04/17 09:48:35;;;;;;;1.77;0.80;;;10.80;71.10;;;;;;5354137;26;20000;-64
2024/04/17 09:51:06;;;;;;;1.88;0.88;;;10.70;71.70;;;;;;5345435;26;20083;-64
2024/04/17 09:53:34;;;;;;;3.63;1.20;;;10.70;72.30;;;;;;5364809;26;20036;-65
2024/04/17 09:56:00;;;;;;;4.43;1.10;;;10.70;72.90;;;;;;5363686;26;20000;-62
2024/04/17 09:58:32;;;;;;;2.63;0.70;;;10.70;72.90;;;;;;5367107;26;20010;-64
2024/04/17 10:01:07;;;;;;;2.03;0.90;;;10.80;72.90;;;;;;5375330;26;20020;-63
2024/04/17 10:03:35;;;;;;;2.22;0.82;;;10.90;72.50;;;;;;5370297;26;20005;-63
2024/04/17 10:06:02;;;;;;;3.28;0.77;;;11.00;72.10;;;;;;5357994;26;20048;-63
2024/04/17 10:08:30;;;;;;;3.38;1.00;;;11.00;72.30;;;;;;5361273;26;20018;-63
2024/04/17 10:10:56;;;;;;;4.72;1.08;;;11.00;72.10;;;;;;5357543;26;20451;-64
2024/04/17 10:13:23;;;;;;;5.10;1.20;;;10.80;71.70;;;;;;5364585;26;20041;-64
2024/04/17 10:15:49;;;;;;;4.00;1.17;;;10.60;72.50;;;;;;5359817;26;20004;-63
2024/04/17 10:18:15;;;;;;;5.05;1.13;;;10.30;73.40;;;;;;5361500;26;20011;-63
2024/04/17 10:20:42;;;;;;;2.20;0.80;;;10.10;74.30;;;;;;5351984;26;20436;-64
2024/04/17 10:23:08;;;;;;;1.73;0.80;;;9.80;75.10;;;;;;5354880;26;20103;-64
2024/04/17 10:25:50;;;;;;;3.90;1.17;;;9.60;75.80;;;;;;5359021;26;19997;-64
2024/04/17 10:28:18;;;;;;;2.90;1.00;;;9.40;76.60;;;;;;5360428;26;20004;-64
2024/04/17 10:30:43;;;;;;;1.52;0.80;;;9.20;77.20;;;;;;5355297;26;20001;-64
2024/04/17 10:33:19;;;;;;;2.03;0.90;;;9.20;77.90;;;;;;5360214;26;20024;-63
2024/04/17 10:35:51;;;;;;;1.55;0.80;;;9.20;78.20;;;;;;5351915;26;20016;-63
2024/04/17 10:38:17;;;;;;;2.30;0.90;;;9.20;78.50;;;;;;5348371;26;20005;-63
2024/04/17 10:40:42;;;;;;;3.95;1.10;;;9.30;78.90;;;;;;5355189;26;20001;-63
2024/04/17 10:43:08;;;;;;;2.78;0.90;;;9.40;79.00;;;;;;5364152;26;19992;-64
2024/04/17 10:45:34;;;;;;;2.85;1.10;;;9.50;79.00;;;;;;5354060;26;20458;-63
2024/04/17 10:48:03;;;;;;;1.95;0.95;;;9.70;79.20;;;;;;5349278;26;20020;-64
2024/04/17 10:50:29;;;;;;;3.83;1.10;;;9.80;79.10;;;;;;5362528;26;20016;-63
2024/04/17 10:52:57;;;;;;;4.18;1.00;;;9.80;79.00;;;;;;5378684;26;20008;-63
2024/04/17 10:55:24;;;;;;;2.47;1.23;;;9.90;79.30;;;;;;5355763;26;20066;-63
2024/04/17 10:57:50;;;;;;;4.05;1.13;;;10.10;79.30;;;;;;5351883;26;20041;-63
2024/04/17 11:00:15;;;;;;;3.10;0.95;;;10.30;79.30;;;;;;5356026;26;19996;-63
2024/04/17 11:02:41;;;;;;;2.05;1.00;;;10.50;79.20;;;;;;5360677;26;20370;-64
2024/04/17 11:05:06;;;;;;;3.15;1.00;;;10.70;78.90;;;;;;5355957;26;20005;-64
2024/04/17 11:07:32;;;;;;;1.38;0.80;;;10.80;78.30;;;;;;5355754;26;19997;-64
2024/04/17 11:09:57;;;;;;;1.42;0.80;;;11.00;77.80;;;;;;5352818;26;20398;-63
2024/04/17 11:12:23;;;;;;;2.40;1.00;;;11.10;77.30;;;;;;5356943;26;20004;-62
2024/04/17 11:14:59;;;;;;;2.67;0.90;;;11.30;76.90;;;;;;5376972;26;19995;-63
2024/04/17 11:17:25;;;;;;;3.65;1.10;;;11.40;76.30;;;;;;5347681;26;20000;-64
2024/04/17 11:19:51;;;;;;;2.65;0.88;;;11.50;76.10;;;;;;5356020;26;20001;-64
2024/04/17 11:22:17;;;;;;;3.50;0.90;;;11.60;75.90;;;;;;5362782;26;20015;-63
2024/04/17 11:24:49;;;;;;;1.33;0.90;;;11.60;75.20;;;;;;5377402;26;20000;-62
2024/04/17 11:27:16;;;;;;;3.22;0.90;;;11.70;74.80;;;;;;5351742;26;20001;-63
2024/04/17 11:29:48;;;;;;;2.03;0.88;;;11.70;74.10;;;;;;5360438;26;20480;-63
2024/04/17 11:32:15;;;;;;;4.28;1.00;;;11.70;73.50;;;;;;5356639;26;20353;-63
2024/04/17 11:34:41;;;;;;;2.95;0.95;;;11.70;73.30;;;;;;5348979;26;20073;-63
2024/04/17 11:37:07;;;;;;;1.75;1.00;;;11.80;72.70;;;;;;5364800;26;20008;-64
2024/04/17 11:39:35;;;;;;;2.63;0.70;;;12.00;72.40;;;;;;5360735;26;20008;-63
2024/04/17 11:42:02;;;;;;;2.20;0.80;;;12.10;71.30;;;;;;5351125;26;20424;-63
2024/04/17 11:44:28;;;;;;;2.25;1.00;;;12.30;70.70;;;;;;5361951;26;20512;-63
2024/04/17 11:46:55;;;;;;;1.35;0.90;;;12.40;69.70;;;;;;5357381;26;20005;-63
2024/04/17 11:49:22;;;;;;;3.97;0.90;;;12.60;69.50;;;;;;5369880;26;20315;-64
2024/04/17 11:51:48;;;;;;;1.05;0.80;;;12.60;69.30;;;;;;5367856;26;20015;-63
2024/04/17 11:54:13;;;;;;;2.08;0.77;;;12.70;69.10;;;;;;5361210;26;20459;-63
2024/04/17 11:56:39;;;;;;;2.15;0.80;;;12.60;68.60;;;;;;5354314;26;19997;-64
2024/04/17 11:59:05;;;;;;;2.25;0.90;;;12.70;67.50;;;;;;5359273;26;19997;-64
2024/04/17 12:01:30;;;;;;;3.17;0.70;;;12.80;67.50;;;;;;5358981;26;20000;-64
2024/04/17 12:03:56;;;;;;;2.05;0.80;;;13.00;67.50;;;;;;5364414;26;20342;-63
2024/04/17 12:06:21;;;;;;;2.85;0.80;;;13.00;67.00;;;;;;5367087;26;20318;-64
2024/04/17 12:08:47;;;;;;;2.42;0.75;;;12.90;66.50;;;;;;5363735;26;20004;-63
2024/04/17 12:11:13;;;;;;;3.22;0.80;;;12.90;66.70;;;;;;5359016;26;20474;-62
2024/04/17 12:13:38;;;;;;;1.38;0.90;;;12.80;66.70;;;;;;5356711;26;20035;-63
2024/04/17 12:16:08;;;;;;;2.35;0.80;;;12.40;66.40;;;;;;5352554;26;20337;-64
2024/04/17 12:18:36;;;;;;;1.30;0.75;;;11.80;66.60;;;;;;5358795;26;20012;-64
2024/04/17 12:21:01;;;;;;;1.38;0.70;;;11.10;67.90;;;;;;5371095;26;19996;-64
2024/04/17 12:23:27;;;;;;;0.80;0.70;;;10.50;69.60;;;;;;5359706;26;20078;-62
2024/04/17 12:28:36;;;;;;;1.35;0.80;;;9.70;72.10;;;;;;5363485;26;20548;-63
2024/04/17 12:31:02;;;;;;;3.40;1.00;;;9.40;73.20;;;;;;5362702;26;20005;-63
2024/04/17 12:33:28;;;;;;;1.23;0.98;;;9.10;74.10;;;;;;5353944;26;20004;-63
2024/04/17 12:35:54;;;;;;;1.77;0.90;;;8.90;74.90;;;;;;5364496;26;20042;-63
2024/04/17 12:38:20;;;;;;;1.08;0.73;;;8.80;75.40;;;;;;5351241;26;20119;-63
2024/04/17 12:40:46;;;;;;;0.80;0.80;;;8.70;75.80;;;;;;5362799;26;20005;-64
2024/04/17 12:43:11;;;;;;;1.90;0.80;;;8.50;76.30;;;;;;5365685;26;20360;-64
2024/04/17 12:45:37;;;;;;;1.50;1.00;;;8.20;77.00;;;;;;5361276;26;20473;-64
2024/04/17 12:48:03;;;;;;;0.80;0.73;;;8.10;77.80;;;;;;5358088;26;20406;-64
2024/04/17 12:50:28;;;;;;;0.88;0.88;;;8.10;78.30;;;;;;5363326;26;20452;-63